<?xml version="1.0" encoding="UTF-8" standalone="no" ?>
<gpx xmlns="http://www.topografix.com/GPX/1/1" xmlns:xsi="http://www.w3.org/2001/XMLSchema-instance" xsi:schemaLocation="http://www.topografix.com/GPX/1/1 http://www.topografix.com/GPX/1/1/gpx.xsd" version="1.1" creator="VisuGPX - https://www.visugpx.com">
  <metadata>
    <name>Rando Gadoue 2016 - 11 km</name>
    <desc><![CDATA[Plus d'infos sur www.sentierslangeaisiens.fr]]></desc>
  </metadata>
  <trk>
    <name><![CDATA[OR-6596034--Langeais:gadoue2016]]></name>
    <trkseg>
      <trkpt lat="47.32774" lon="0.39877">
        <ele>46</ele>
        <time>2016-09-19T20:21:47Z</time>
      </trkpt>
      <trkpt lat="47.32749" lon="0.39847">
        <ele>47</ele>
        <time>2016-09-19T20:23:47Z</time>
      </trkpt>
      <trkpt lat="47.32723" lon="0.39879">
        <ele>47</ele>
        <time>2016-09-19T20:25:47Z</time>
      </trkpt>
      <trkpt lat="47.32694" lon="0.39907">
        <ele>47</ele>
        <time>2016-09-19T20:27:47Z</time>
      </trkpt>
      <trkpt lat="47.32655" lon="0.39914">
        <ele>47</ele>
        <time>2016-09-19T20:29:47Z</time>
      </trkpt>
      <trkpt lat="47.3262" lon="0.39931">
        <ele>50</ele>
        <time>2016-09-19T20:31:47Z</time>
      </trkpt>
      <trkpt lat="47.32585" lon="0.39948">
        <ele>50</ele>
        <time>2016-09-19T20:33:47Z</time>
      </trkpt>
      <trkpt lat="47.3255" lon="0.39965">
        <ele>52</ele>
        <time>2016-09-19T20:35:47Z</time>
      </trkpt>
      <trkpt lat="47.32515" lon="0.39982">
        <ele>54</ele>
        <time>2016-09-19T20:37:47Z</time>
      </trkpt>
      <trkpt lat="47.32484" lon="0.40015">
        <ele>56</ele>
        <time>2016-09-19T20:39:47Z</time>
      </trkpt>
      <trkpt lat="47.32466" lon="0.40045">
        <ele>58</ele>
        <time>2016-09-19T20:41:47Z</time>
      </trkpt>
      <trkpt lat="47.32445" lon="0.40076">
        <ele>61</ele>
        <time>2016-09-19T20:43:47Z</time>
      </trkpt>
      <trkpt lat="47.32425" lon="0.40115">
        <ele>63</ele>
        <time>2016-09-19T20:45:47Z</time>
      </trkpt>
      <trkpt lat="47.32412" lon="0.40171">
        <ele>59</ele>
        <time>2016-09-19T20:47:47Z</time>
      </trkpt>
      <trkpt lat="47.32412" lon="0.40227">
        <ele>54</ele>
        <time>2016-09-19T20:49:47Z</time>
      </trkpt>
      <trkpt lat="47.32412" lon="0.40267">
        <ele>52</ele>
        <time>2016-09-19T20:51:47Z</time>
      </trkpt>
      <trkpt lat="47.32393" lon="0.4033">
        <ele>55</ele>
        <time>2016-09-19T20:53:47Z</time>
      </trkpt>
      <trkpt lat="47.324" lon="0.40396">
        <ele>54</ele>
        <time>2016-09-19T20:55:47Z</time>
      </trkpt>
      <trkpt lat="47.32371" lon="0.40411">
        <ele>54</ele>
        <time>2016-09-19T20:57:47Z</time>
      </trkpt>
      <trkpt lat="47.32342" lon="0.4042">
        <ele>53</ele>
        <time>2016-09-19T20:59:47Z</time>
      </trkpt>
      <trkpt lat="47.32347" lon="0.40454">
        <ele>50</ele>
        <time>2016-09-19T21:01:47Z</time>
      </trkpt>
      <trkpt lat="47.32331" lon="0.40449">
        <ele>50</ele>
        <time>2016-09-19T21:03:47Z</time>
      </trkpt>
      <trkpt lat="47.32317" lon="0.40461">
        <ele>47</ele>
        <time>2016-09-19T21:05:47Z</time>
      </trkpt>
      <trkpt lat="47.32308" lon="0.40451">
        <ele>47</ele>
        <time>2016-09-19T21:07:47Z</time>
      </trkpt>
      <trkpt lat="47.32286" lon="0.40481">
        <ele>44</ele>
        <time>2016-09-19T21:09:47Z</time>
      </trkpt>
      <trkpt lat="47.32271" lon="0.405">
        <ele>42</ele>
        <time>2016-09-19T21:11:47Z</time>
      </trkpt>
      <trkpt lat="47.32263" lon="0.40516">
        <ele>42</ele>
        <time>2016-09-19T21:13:47Z</time>
      </trkpt>
      <trkpt lat="47.3225" lon="0.40537">
        <ele>41</ele>
        <time>2016-09-19T21:15:47Z</time>
      </trkpt>
      <trkpt lat="47.32234" lon="0.4056">
        <ele>41</ele>
        <time>2016-09-19T21:17:47Z</time>
      </trkpt>
      <trkpt lat="47.32218" lon="0.40583">
        <ele>41</ele>
        <time>2016-09-19T21:19:47Z</time>
      </trkpt>
      <trkpt lat="47.32202" lon="0.40607">
        <ele>42</ele>
        <time>2016-09-19T21:21:47Z</time>
      </trkpt>
      <trkpt lat="47.32194" lon="0.4062">
        <ele>42</ele>
        <time>2016-09-19T21:23:47Z</time>
      </trkpt>
      <trkpt lat="47.32164" lon="0.40572">
        <ele>41</ele>
        <time>2016-09-19T21:25:47Z</time>
      </trkpt>
      <trkpt lat="47.32138" lon="0.4054">
        <ele>39</ele>
        <time>2016-09-19T21:27:47Z</time>
      </trkpt>
      <trkpt lat="47.32112" lon="0.40508">
        <ele>38</ele>
        <time>2016-09-19T21:29:47Z</time>
      </trkpt>
      <trkpt lat="47.32106" lon="0.40442">
        <ele>37</ele>
        <time>2016-09-19T21:31:47Z</time>
      </trkpt>
      <trkpt lat="47.321" lon="0.40371">
        <ele>38</ele>
        <time>2016-09-19T21:33:47Z</time>
      </trkpt>
      <trkpt lat="47.321" lon="0.40311">
        <ele>39</ele>
        <time>2016-09-19T21:35:47Z</time>
      </trkpt>
      <trkpt lat="47.32048" lon="0.4036">
        <ele>37</ele>
        <time>2016-09-19T21:37:47Z</time>
      </trkpt>
      <trkpt lat="47.31974" lon="0.40418">
        <ele>36</ele>
        <time>2016-09-19T21:39:47Z</time>
      </trkpt>
      <trkpt lat="47.319" lon="0.40476">
        <ele>36</ele>
        <time>2016-09-19T21:41:47Z</time>
      </trkpt>
      <trkpt lat="47.31826" lon="0.40534">
        <ele>39</ele>
        <time>2016-09-19T21:43:47Z</time>
      </trkpt>
      <trkpt lat="47.31735" lon="0.40609">
        <ele>44</ele>
        <time>2016-09-19T21:45:47Z</time>
      </trkpt>
      <trkpt lat="47.31638" lon="0.4069">
        <ele>40</ele>
        <time>2016-09-19T21:47:47Z</time>
      </trkpt>
      <trkpt lat="47.31532" lon="0.40787">
        <ele>38</ele>
        <time>2016-09-19T21:49:47Z</time>
      </trkpt>
      <trkpt lat="47.3149" lon="0.4083">
        <ele>39</ele>
        <time>2016-09-19T21:51:47Z</time>
      </trkpt>
      <trkpt lat="47.31511" lon="0.40873">
        <ele>39</ele>
        <time>2016-09-19T21:53:47Z</time>
      </trkpt>
      <trkpt lat="47.31523" lon="0.40924">
        <ele>39</ele>
        <time>2016-09-19T21:55:47Z</time>
      </trkpt>
      <trkpt lat="47.31535" lon="0.40987">
        <ele>39</ele>
        <time>2016-09-19T21:57:47Z</time>
      </trkpt>
      <trkpt lat="47.31542" lon="0.41051">
        <ele>39</ele>
        <time>2016-09-19T21:59:47Z</time>
      </trkpt>
      <trkpt lat="47.3149" lon="0.4107">
        <ele>39</ele>
        <time>2016-09-19T22:01:47Z</time>
      </trkpt>
      <trkpt lat="47.31443" lon="0.41087">
        <ele>38</ele>
        <time>2016-09-19T22:03:47Z</time>
      </trkpt>
      <trkpt lat="47.31462" lon="0.41171">
        <ele>40</ele>
        <time>2016-09-19T22:05:47Z</time>
      </trkpt>
      <trkpt lat="47.31478" lon="0.41268">
        <ele>40</ele>
        <time>2016-09-19T22:07:47Z</time>
      </trkpt>
      <trkpt lat="47.31418" lon="0.41304">
        <ele>39</ele>
        <time>2016-09-19T22:09:47Z</time>
      </trkpt>
      <trkpt lat="47.31343" lon="0.41341">
        <ele>37</ele>
        <time>2016-09-19T22:11:47Z</time>
      </trkpt>
      <trkpt lat="47.31263" lon="0.41386">
        <ele>37</ele>
        <time>2016-09-19T22:13:47Z</time>
      </trkpt>
      <trkpt lat="47.31181" lon="0.41435">
        <ele>38</ele>
        <time>2016-09-19T22:15:47Z</time>
      </trkpt>
      <trkpt lat="47.31158" lon="0.41336">
        <ele>38</ele>
        <time>2016-09-19T22:17:47Z</time>
      </trkpt>
      <trkpt lat="47.3112" lon="0.41197">
        <ele>38</ele>
        <time>2016-09-19T22:19:47Z</time>
      </trkpt>
      <trkpt lat="47.31062" lon="0.41231">
        <ele>38</ele>
        <time>2016-09-19T22:21:47Z</time>
      </trkpt>
      <trkpt lat="47.31012" lon="0.41248">
        <ele>39</ele>
        <time>2016-09-19T22:23:47Z</time>
      </trkpt>
      <trkpt lat="47.30961" lon="0.41253">
        <ele>38</ele>
        <time>2016-09-19T22:25:47Z</time>
      </trkpt>
      <trkpt lat="47.30922" lon="0.41285">
        <ele>37</ele>
        <time>2016-09-19T22:27:47Z</time>
      </trkpt>
      <trkpt lat="47.30874" lon="0.41319">
        <ele>37</ele>
        <time>2016-09-19T22:29:47Z</time>
      </trkpt>
      <trkpt lat="47.30826" lon="0.41358">
        <ele>38</ele>
        <time>2016-09-19T22:31:47Z</time>
      </trkpt>
      <trkpt lat="47.30807" lon="0.41366">
        <ele>37</ele>
        <time>2016-09-19T22:33:47Z</time>
      </trkpt>
      <trkpt lat="47.30782" lon="0.4139">
        <ele>38</ele>
        <time>2016-09-19T22:35:47Z</time>
      </trkpt>
      <trkpt lat="47.30753" lon="0.41418">
        <ele>39</ele>
        <time>2016-09-19T22:37:47Z</time>
      </trkpt>
      <trkpt lat="47.30765" lon="0.41411">
        <ele>38</ele>
        <time>2016-09-19T22:39:47Z</time>
      </trkpt>
      <trkpt lat="47.30695" lon="0.41478">
        <ele>37</ele>
        <time>2016-09-19T22:41:47Z</time>
      </trkpt>
      <trkpt lat="47.30633" lon="0.41495">
        <ele>36</ele>
        <time>2016-09-19T22:43:47Z</time>
      </trkpt>
      <trkpt lat="47.3057" lon="0.41514">
        <ele>37</ele>
        <time>2016-09-19T22:45:47Z</time>
      </trkpt>
      <trkpt lat="47.30516" lon="0.41536">
        <ele>37</ele>
        <time>2016-09-19T22:47:47Z</time>
      </trkpt>
      <trkpt lat="47.30481" lon="0.41562">
        <ele>37</ele>
        <time>2016-09-19T22:49:47Z</time>
      </trkpt>
      <trkpt lat="47.30443" lon="0.41525">
        <ele>38</ele>
        <time>2016-09-19T22:51:47Z</time>
      </trkpt>
      <trkpt lat="47.30394" lon="0.41487">
        <ele>40</ele>
        <time>2016-09-19T22:53:47Z</time>
      </trkpt>
      <trkpt lat="47.30369" lon="0.41439">
        <ele>40</ele>
        <time>2016-09-19T22:55:47Z</time>
      </trkpt>
      <trkpt lat="47.30363" lon="0.41375">
        <ele>38</ele>
        <time>2016-09-19T22:57:47Z</time>
      </trkpt>
      <trkpt lat="47.30356" lon="0.41311">
        <ele>38</ele>
        <time>2016-09-19T22:59:47Z</time>
      </trkpt>
      <trkpt lat="47.30346" lon="0.41178">
        <ele>40</ele>
        <time>2016-09-19T23:01:47Z</time>
      </trkpt>
      <trkpt lat="47.30336" lon="0.41045">
        <ele>40</ele>
        <time>2016-09-19T23:03:47Z</time>
      </trkpt>
      <trkpt lat="47.30326" lon="0.40912">
        <ele>39</ele>
        <time>2016-09-19T23:05:47Z</time>
      </trkpt>
      <trkpt lat="47.30315" lon="0.40778">
        <ele>40</ele>
        <time>2016-09-19T23:07:47Z</time>
      </trkpt>
      <trkpt lat="47.30305" lon="0.40645">
        <ele>38</ele>
        <time>2016-09-19T23:09:47Z</time>
      </trkpt>
      <trkpt lat="47.30295" lon="0.40512">
        <ele>38</ele>
        <time>2016-09-19T23:11:47Z</time>
      </trkpt>
      <trkpt lat="47.30292" lon="0.40405">
        <ele>39</ele>
        <time>2016-09-19T23:13:47Z</time>
      </trkpt>
      <trkpt lat="47.30282" lon="0.40328">
        <ele>40</ele>
        <time>2016-09-19T23:15:47Z</time>
      </trkpt>
      <trkpt lat="47.30251" lon="0.40244">
        <ele>39</ele>
        <time>2016-09-19T23:17:47Z</time>
      </trkpt>
      <trkpt lat="47.30218" lon="0.40139">
        <ele>40</ele>
        <time>2016-09-19T23:19:47Z</time>
      </trkpt>
      <trkpt lat="47.30167" lon="0.40073">
        <ele>40</ele>
        <time>2016-09-19T23:21:47Z</time>
      </trkpt>
      <trkpt lat="47.30131" lon="0.40004">
        <ele>38</ele>
        <time>2016-09-19T23:23:47Z</time>
      </trkpt>
      <trkpt lat="47.30099" lon="0.39965">
        <ele>39</ele>
        <time>2016-09-19T23:25:47Z</time>
      </trkpt>
      <trkpt lat="47.30045" lon="0.39907">
        <ele>38</ele>
        <time>2016-09-19T23:27:47Z</time>
      </trkpt>
      <trkpt lat="47.30036" lon="0.39832">
        <ele>37</ele>
        <time>2016-09-19T23:29:47Z</time>
      </trkpt>
      <trkpt lat="47.30024" lon="0.39768">
        <ele>37</ele>
        <time>2016-09-19T23:31:47Z</time>
      </trkpt>
      <trkpt lat="47.30033" lon="0.39697">
        <ele>37</ele>
        <time>2016-09-19T23:33:47Z</time>
      </trkpt>
      <trkpt lat="47.30037" lon="0.39615">
        <ele>37</ele>
        <time>2016-09-19T23:35:47Z</time>
      </trkpt>
      <trkpt lat="47.30036" lon="0.39562">
        <ele>37</ele>
        <time>2016-09-19T23:37:47Z</time>
      </trkpt>
      <trkpt lat="47.30051" lon="0.39497">
        <ele>37</ele>
        <time>2016-09-19T23:39:47Z</time>
      </trkpt>
      <trkpt lat="47.3004" lon="0.39437">
        <ele>38</ele>
        <time>2016-09-19T23:41:47Z</time>
      </trkpt>
      <trkpt lat="47.30024" lon="0.3936">
        <ele>38</ele>
        <time>2016-09-19T23:43:47Z</time>
      </trkpt>
      <trkpt lat="47.30027" lon="0.39264">
        <ele>37</ele>
        <time>2016-09-19T23:45:47Z</time>
      </trkpt>
      <trkpt lat="47.30064" lon="0.39156">
        <ele>38</ele>
        <time>2016-09-19T23:47:47Z</time>
      </trkpt>
      <trkpt lat="47.30123" lon="0.39115">
        <ele>37</ele>
        <time>2016-09-19T23:49:47Z</time>
      </trkpt>
      <trkpt lat="47.3019" lon="0.3907">
        <ele>37</ele>
        <time>2016-09-19T23:51:47Z</time>
      </trkpt>
      <trkpt lat="47.30234" lon="0.38995">
        <ele>38</ele>
        <time>2016-09-19T23:53:47Z</time>
      </trkpt>
      <trkpt lat="47.30275" lon="0.38927">
        <ele>38</ele>
        <time>2016-09-19T23:55:47Z</time>
      </trkpt>
      <trkpt lat="47.30318" lon="0.38843">
        <ele>37</ele>
        <time>2016-09-19T23:57:47Z</time>
      </trkpt>
      <trkpt lat="47.30356" lon="0.38742">
        <ele>37</ele>
        <time>2016-09-19T23:59:47Z</time>
      </trkpt>
      <trkpt lat="47.30368" lon="0.388">
        <ele>37</ele>
        <time>2016-09-20T00:01:47Z</time>
      </trkpt>
      <trkpt lat="47.30375" lon="0.3886">
        <ele>37</ele>
        <time>2016-09-20T00:03:47Z</time>
      </trkpt>
      <trkpt lat="47.30375" lon="0.38957">
        <ele>38</ele>
        <time>2016-09-20T00:05:47Z</time>
      </trkpt>
      <trkpt lat="47.30388" lon="0.39047">
        <ele>37</ele>
        <time>2016-09-20T00:07:47Z</time>
      </trkpt>
      <trkpt lat="47.30397" lon="0.39098">
        <ele>37</ele>
        <time>2016-09-20T00:09:47Z</time>
      </trkpt>
      <trkpt lat="47.30448" lon="0.39066">
        <ele>37</ele>
        <time>2016-09-20T00:11:47Z</time>
      </trkpt>
      <trkpt lat="47.305" lon="0.39047">
        <ele>37</ele>
        <time>2016-09-20T00:13:47Z</time>
      </trkpt>
      <trkpt lat="47.3055" lon="0.39032">
        <ele>38</ele>
        <time>2016-09-20T00:15:47Z</time>
      </trkpt>
      <trkpt lat="47.30569" lon="0.39079">
        <ele>38</ele>
        <time>2016-09-20T00:17:47Z</time>
      </trkpt>
      <trkpt lat="47.30617" lon="0.39043">
        <ele>39</ele>
        <time>2016-09-20T00:19:47Z</time>
      </trkpt>
      <trkpt lat="47.30638" lon="0.39103">
        <ele>40</ele>
        <time>2016-09-20T00:21:47Z</time>
      </trkpt>
      <trkpt lat="47.30697" lon="0.39296">
        <ele>37</ele>
        <time>2016-09-20T00:23:47Z</time>
      </trkpt>
      <trkpt lat="47.30769" lon="0.39495">
        <ele>38</ele>
        <time>2016-09-20T00:25:47Z</time>
      </trkpt>
      <trkpt lat="47.3082" lon="0.39656">
        <ele>38</ele>
        <time>2016-09-20T00:27:47Z</time>
      </trkpt>
      <trkpt lat="47.3087" lon="0.39847">
        <ele>38</ele>
        <time>2016-09-20T00:29:47Z</time>
      </trkpt>
      <trkpt lat="47.30953" lon="0.39791">
        <ele>37</ele>
        <time>2016-09-20T00:31:47Z</time>
      </trkpt>
      <trkpt lat="47.31036" lon="0.39751">
        <ele>38</ele>
        <time>2016-09-20T00:33:47Z</time>
      </trkpt>
      <trkpt lat="47.31119" lon="0.3971">
        <ele>41</ele>
        <time>2016-09-20T00:35:47Z</time>
      </trkpt>
      <trkpt lat="47.31119" lon="0.39635">
        <ele>41</ele>
        <time>2016-09-20T00:37:47Z</time>
      </trkpt>
      <trkpt lat="47.31104" lon="0.39558">
        <ele>40</ele>
        <time>2016-09-20T00:39:47Z</time>
      </trkpt>
      <trkpt lat="47.31139" lon="0.39577">
        <ele>40</ele>
        <time>2016-09-20T00:41:47Z</time>
      </trkpt>
      <trkpt lat="47.31167" lon="0.39656">
        <ele>41</ele>
        <time>2016-09-20T00:43:47Z</time>
      </trkpt>
      <trkpt lat="47.31177" lon="0.39738">
        <ele>40</ele>
        <time>2016-09-20T00:45:47Z</time>
      </trkpt>
      <trkpt lat="47.31204" lon="0.39813">
        <ele>39</ele>
        <time>2016-09-20T00:47:47Z</time>
      </trkpt>
      <trkpt lat="47.31241" lon="0.3992">
        <ele>38</ele>
        <time>2016-09-20T00:49:47Z</time>
      </trkpt>
      <trkpt lat="47.31273" lon="0.40045">
        <ele>38</ele>
        <time>2016-09-20T00:51:47Z</time>
      </trkpt>
      <trkpt lat="47.313" lon="0.40163">
        <ele>38</ele>
        <time>2016-09-20T00:53:47Z</time>
      </trkpt>
      <trkpt lat="47.31328" lon="0.40279">
        <ele>39</ele>
        <time>2016-09-20T00:55:47Z</time>
      </trkpt>
      <trkpt lat="47.31366" lon="0.40366">
        <ele>39</ele>
        <time>2016-09-20T00:57:47Z</time>
      </trkpt>
      <trkpt lat="47.31402" lon="0.40469">
        <ele>39</ele>
        <time>2016-09-20T00:59:47Z</time>
      </trkpt>
      <trkpt lat="47.3143" lon="0.40564">
        <ele>39</ele>
        <time>2016-09-20T01:01:47Z</time>
      </trkpt>
      <trkpt lat="47.3146" lon="0.40654">
        <ele>38</ele>
        <time>2016-09-20T01:03:47Z</time>
      </trkpt>
      <trkpt lat="47.31492" lon="0.40725">
        <ele>36</ele>
        <time>2016-09-20T01:05:47Z</time>
      </trkpt>
      <trkpt lat="47.31507" lon="0.40802">
        <ele>38</ele>
        <time>2016-09-20T01:07:47Z</time>
      </trkpt>
      <trkpt lat="47.31604" lon="0.40716">
        <ele>38</ele>
        <time>2016-09-20T01:09:47Z</time>
      </trkpt>
      <trkpt lat="47.317" lon="0.40639">
        <ele>43</ele>
        <time>2016-09-20T01:11:47Z</time>
      </trkpt>
      <trkpt lat="47.31852" lon="0.40521">
        <ele>38</ele>
        <time>2016-09-20T01:13:47Z</time>
      </trkpt>
      <trkpt lat="47.32025" lon="0.40382">
        <ele>36</ele>
        <time>2016-09-20T01:15:47Z</time>
      </trkpt>
      <trkpt lat="47.32121" lon="0.40315">
        <ele>39</ele>
        <time>2016-09-20T01:17:47Z</time>
      </trkpt>
      <trkpt lat="47.32151" lon="0.40332">
        <ele>40</ele>
        <time>2016-09-20T01:19:47Z</time>
      </trkpt>
      <trkpt lat="47.32157" lon="0.40287">
        <ele>40</ele>
        <time>2016-09-20T01:21:47Z</time>
      </trkpt>
      <trkpt lat="47.32172" lon="0.40255">
        <ele>42</ele>
        <time>2016-09-20T01:23:47Z</time>
      </trkpt>
      <trkpt lat="47.32211" lon="0.40218">
        <ele>49</ele>
        <time>2016-09-20T01:25:47Z</time>
      </trkpt>
      <trkpt lat="47.32243" lon="0.40287">
        <ele>48</ele>
        <time>2016-09-20T01:27:47Z</time>
      </trkpt>
      <trkpt lat="47.32269" lon="0.40263">
        <ele>55</ele>
        <time>2016-09-20T01:29:47Z</time>
      </trkpt>
      <trkpt lat="47.3231" lon="0.40251">
        <ele>67</ele>
        <time>2016-09-20T01:31:47Z</time>
      </trkpt>
      <trkpt lat="47.32303" lon="0.4018">
        <ele>74</ele>
        <time>2016-09-20T01:33:47Z</time>
      </trkpt>
      <trkpt lat="47.32306" lon="0.40113">
        <ele>82</ele>
        <time>2016-09-20T01:35:47Z</time>
      </trkpt>
      <trkpt lat="47.323" lon="0.40053">
        <ele>86</ele>
        <time>2016-09-20T01:37:47Z</time>
      </trkpt>
      <trkpt lat="47.32303" lon="0.39987">
        <ele>88</ele>
        <time>2016-09-20T01:39:47Z</time>
      </trkpt>
      <trkpt lat="47.32362" lon="0.39976">
        <ele>84</ele>
        <time>2016-09-20T01:41:47Z</time>
      </trkpt>
      <trkpt lat="47.32418" lon="0.39933">
        <ele>80</ele>
        <time>2016-09-20T01:43:47Z</time>
      </trkpt>
      <trkpt lat="47.3247" lon="0.39888">
        <ele>75</ele>
        <time>2016-09-20T01:45:47Z</time>
      </trkpt>
      <trkpt lat="47.3246" lon="0.39903">
        <ele>75</ele>
        <time>2016-09-20T01:47:47Z</time>
      </trkpt>
      <trkpt lat="47.32434" lon="0.39914">
        <ele>79</ele>
        <time>2016-09-20T01:49:47Z</time>
      </trkpt>
      <trkpt lat="47.32502" lon="0.39877">
        <ele>72</ele>
        <time>2016-09-20T01:51:47Z</time>
      </trkpt>
      <trkpt lat="47.32534" lon="0.39815">
        <ele>73</ele>
        <time>2016-09-20T01:53:47Z</time>
      </trkpt>
      <trkpt lat="47.3256" lon="0.3977">
        <ele>72</ele>
        <time>2016-09-20T01:55:47Z</time>
      </trkpt>
      <trkpt lat="47.32615" lon="0.39751">
        <ele>65</ele>
        <time>2016-09-20T01:57:47Z</time>
      </trkpt>
      <trkpt lat="47.32644" lon="0.39759">
        <ele>60</ele>
        <time>2016-09-20T01:59:47Z</time>
      </trkpt>
      <trkpt lat="47.32659" lon="0.39761">
        <ele>57</ele>
        <time>2016-09-20T02:01:47Z</time>
      </trkpt>
      <trkpt lat="47.32672" lon="0.39806">
        <ele>52</ele>
        <time>2016-09-20T02:03:47Z</time>
      </trkpt>
      <trkpt lat="47.32703" lon="0.39828">
        <ele>49</ele>
        <time>2016-09-20T02:05:47Z</time>
      </trkpt>
      <trkpt lat="47.32738" lon="0.39869">
        <ele>47</ele>
        <time>2016-09-20T02:07:47Z</time>
      </trkpt>
      <trkpt lat="47.32774" lon="0.39843">
        <ele>46</ele>
        <time>2016-09-20T02:09:47Z</time>
      </trkpt>
      <trkpt lat="47.32799" lon="0.39879">
        <ele>46</ele>
        <time>2016-09-20T02:11:47Z</time>
      </trkpt>
    </trkseg>
  </trk>
</gpx>